sensor_id;sensor_type;location;lat;lon;timestamp;temperature;humidity
30648;DHT22;17683;53.360;9.736;2023-03-01T00:02:20;-2.00;99.90
30648;DHT22;17683;53.360;9.736;2023-03-01T00:04:46;-2.00;99.90
30648;DHT22;17683;53.360;9.736;2023-03-01T00:07:12;-2.10;99.90
30648;DHT22;17683;53.360;9.736;2023-03-01T00:09:38;-2.10;99.90
30648;DHT22;17683;53.360;9.736;2023-03-01T00:12:06;-2.20;99.90
30648;DHT22;17683;53.360;9.736;2023-03-01T00:14:32;-2.20;99.90
30648;DHT22;17683;53.360;9.736;2023-03-01T00:16:57;-2.20;99.90
30648;DHT22;17683;53.360;9.736;2023-03-01T00:19:23;-2.20;99.90
30648;DHT22;17683;53.360;9.736;2023-03-01T00:21:49;-2.20;99.90
30648;DHT22;17683;53.360;9.736;2023-03-01T00:24:15;-2.20;99.90
30648;DHT22;17683;53.360;9.736;2023-03-01T00:26:41;-2.20;99.90
30648;DHT22;17683;53.360;9.736;2023-03-01T00:29:06;-2.20;99.90
30648;DHT22;17683;53.360;9.736;2023-03-01T00:31:32;-2.20;99.90
30648;DHT22;17683;53.360;9.736;2023-03-01T00:34:01;-2.30;99.90
30648;DHT22;17683;53.360;9.736;2023-03-01T00:36:29;-2.20;99.90
30648;DHT22;17683;53.360;9.736;2023-03-01T00:38:56;-2.30;99.90
30648;DHT22;17683;53.360;9.736;2023-03-01T00:41:22;-2.30;99.90
30648;DHT22;17683;53.360;9.736;2023-03-01T00:43:49;-2.30;99.90
30648;DHT22;17683;53.360;9.736;2023-03-01T00:46:21;-2.30;99.90
30648;DHT22;17683;53.360;9.736;2023-03-01T00:48:47;-2.40;99.90
30648;DHT22;17683;53.360;9.736;2023-03-01T00:51:15;-2.30;99.90
30648;DHT22;17683;53.360;9.736;2023-03-01T00:53:42;-2.30;99.90
30648;DHT22;17683;53.360;9.736;2023-03-01T00:56:09;-2.40;99.90
30648;DHT22;17683;53.360;9.736;2023-03-01T00:58:35;-2.40;99.90
30648;DHT22;17683;53.360;9.736;2023-03-01T01:01:08;-2.40;99.90
30648;DHT22;17683;53.360;9.736;2023-03-01T01:06:21;-2.50;99.90
30648;DHT22;17683;53.360;9.736;2023-03-01T01:08:48;-2.40;99.90
30648;DHT22;17683;53.360;9.736;2023-03-01T01:11:14;-2.40;99.90
30648;DHT22;17683;53.360;9.736;2023-03-01T01:13:40;-2.50;99.90
30648;DHT22;17683;53.360;9.736;2023-03-01T01:16:07;-2.50;99.90
30648;DHT22;17683;53.360;9.736;2023-03-01T01:18:33;-2.50;99.90
30648;DHT22;17683;53.360;9.736;2023-03-01T01:21:04;-2.40;99.90
30648;DHT22;17683;53.360;9.736;2023-03-01T01:23:31;-2.50;99.90
30648;DHT22;17683;53.360;9.736;2023-03-01T01:25:56;-2.50;99.90
30648;DHT22;17683;53.360;9.736;2023-03-01T01:28:22;-2.50;99.90
30648;DHT22;17683;53.360;9.736;2023-03-01T01:30:47;-2.50;99.90
30648;DHT22;17683;53.360;9.736;2023-03-01T01:33:13;-2.50;99.90
30648;DHT22;17683;53.360;9.736;2023-03-01T01:35:39;-2.60;99.90
30648;DHT22;17683;53.360;9.736;2023-03-01T01:38:04;-2.60;99.90
30648;DHT22;17683;53.360;9.736;2023-03-01T01:40:30;-2.60;99.90
30648;DHT22;17683;53.360;9.736;2023-03-01T01:42:56;-2.60;99.90
30648;DHT22;17683;53.360;9.736;2023-03-01T01:45:27;-2.60;99.90
30648;DHT22;17683;53.360;9.736;2023-03-01T01:47:57;-2.60;99.90
30648;DHT22;17683;53.360;9.736;2023-03-01T01:50:24;-2.60;99.90
30648;DHT22;17683;53.360;9.736;2023-03-01T01:52:52;-2.60;99.90
30648;DHT22;17683;53.360;9.736;2023-03-01T01:55:23;-2.60;99.90
30648;DHT22;17683;53.360;9.736;2023-03-01T01:57:55;-2.50;99.90
30648;DHT22;17683;53.360;9.736;2023-03-01T02:00:24;-2.50;99.90
30648;DHT22;17683;53.360;9.736;2023-03-01T02:02:59;-2.60;99.90
30648;DHT22;17683;53.360;9.736;2023-03-01T02:08:13;-2.60;99.90
30648;DHT22;17683;53.360;9.736;2023-03-01T02:10:41;-2.60;99.90
30648;DHT22;17683;53.360;9.736;2023-03-01T02:13:07;-2.60;99.90
30648;DHT22;17683;53.360;9.736;2023-03-01T02:15:35;-2.60;99.90
30648;DHT22;17683;53.360;9.736;2023-03-01T02:18:03;-2.60;99.90
30648;DHT22;17683;53.360;9.736;2023-03-01T02:20:43;-2.60;99.90
30648;DHT22;17683;53.360;9.736;2023-03-01T02:23:11;-2.60;99.90
30648;DHT22;17683;53.360;9.736;2023-03-01T02:30:37;-2.70;99.90
30648;DHT22;17683;53.360;9.736;2023-03-01T02:33:22;-2.70;99.90
30648;DHT22;17683;53.360;9.736;2023-03-01T02:35:48;-2.60;99.90
30648;DHT22;17683;53.360;9.736;2023-03-01T02:38:14;-2.60;99.90
30648;DHT22;17683;53.360;9.736;2023-03-01T02:40:40;-2.70;99.90
30648;DHT22;17683;53.360;9.736;2023-03-01T02:43:10;-2.70;99.90
30648;DHT22;17683;53.360;9.736;2023-03-01T02:45:37;-2.70;99.90
30648;DHT22;17683;53.360;9.736;2023-03-01T02:48:03;-2.70;99.90
30648;DHT22;17683;53.360;9.736;2023-03-01T02:55:28;-2.70;99.90
30648;DHT22;17683;53.360;9.736;2023-03-01T02:57:55;-2.70;99.90
30648;DHT22;17683;53.360;9.736;2023-03-01T03:00:28;-2.70;99.90
30648;DHT22;17683;53.360;9.736;2023-03-01T03:02:55;-2.70;99.90
30648;DHT22;17683;53.360;9.736;2023-03-01T03:05:30;-2.80;99.90
30648;DHT22;17683;53.360;9.736;2023-03-01T03:07:56;-2.80;99.90
30648;DHT22;17683;53.360;9.736;2023-03-01T03:10:38;-2.80;99.90
30648;DHT22;17683;53.360;9.736;2023-03-01T03:13:09;-2.80;99.90
30648;DHT22;17683;53.360;9.736;2023-03-01T03:15:35;-2.70;99.90
30648;DHT22;17683;53.360;9.736;2023-03-01T03:18:03;-2.80;99.90
30648;DHT22;17683;53.360;9.736;2023-03-01T03:20:30;-2.70;99.90
30648;DHT22;17683;53.360;9.736;2023-03-01T03:22:58;-2.70;99.90
30648;DHT22;17683;53.360;9.736;2023-03-01T03:25:24;-2.70;99.90
30648;DHT22;17683;53.360;9.736;2023-03-01T03:27:52;-2.80;99.90
30648;DHT22;17683;53.360;9.736;2023-03-01T03:30:30;-2.70;99.90
30648;DHT22;17683;53.360;9.736;2023-03-01T03:32:57;-2.70;99.90
30648;DHT22;17683;53.360;9.736;2023-03-01T03:35:26;-2.70;99.90
30648;DHT22;17683;53.360;9.736;2023-03-01T03:37:54;-2.70;99.90
30648;DHT22;17683;53.360;9.736;2023-03-01T03:40:48;-2.70;99.90
30648;DHT22;17683;53.360;9.736;2023-03-01T03:43:17;-2.70;99.90
30648;DHT22;17683;53.360;9.736;2023-03-01T03:45:48;-2.70;99.90
30648;DHT22;17683;53.360;9.736;2023-03-01T03:48:14;-2.80;99.90
30648;DHT22;17683;53.360;9.736;2023-03-01T03:50:41;-2.70;99.90
30648;DHT22;17683;53.360;9.736;2023-03-01T03:53:10;-2.70;99.90
30648;DHT22;17683;53.360;9.736;2023-03-01T03:55:36;-2.70;99.90
30648;DHT22;17683;53.360;9.736;2023-03-01T03:58:05;-2.70;99.90
30648;DHT22;17683;53.360;9.736;2023-03-01T04:00:43;-2.70;99.90
30648;DHT22;17683;53.360;9.736;2023-03-01T04:03:09;-2.70;99.90
30648;DHT22;17683;53.360;9.736;2023-03-01T04:05:36;-2.70;99.90
30648;DHT22;17683;53.360;9.736;2023-03-01T04:08:02;-2.70;99.90
30648;DHT22;17683;53.360;9.736;2023-03-01T04:10:33;-2.60;99.90
30648;DHT22;17683;53.360;9.736;2023-03-01T04:12:59;-2.60;99.90
30648;DHT22;17683;53.360;9.736;2023-03-01T04:15:26;-2.60;99.90
30648;DHT22;17683;53.360;9.736;2023-03-01T04:17:53;-2.60;99.90
30648;DHT22;17683;53.360;9.736;2023-03-01T04:20:22;-2.60;99.90
30648;DHT22;17683;53.360;9.736;2023-03-01T04:23:03;-2.60;99.90
30648;DHT22;17683;53.360;9.736;2023-03-01T04:25:45;-2.60;99.90
30648;DHT22;17683;53.360;9.736;2023-03-01T04:28:11;-2.50;99.90
30648;DHT22;17683;53.360;9.736;2023-03-01T04:30:38;-2.50;99.90
30648;DHT22;17683;53.360;9.736;2023-03-01T04:33:09;-2.50;99.90
30648;DHT22;17683;53.360;9.736;2023-03-01T04:35:36;-2.50;99.90
30648;DHT22;17683;53.360;9.736;2023-03-01T04:38:02;-2.40;99.90
30648;DHT22;17683;53.360;9.736;2023-03-01T04:40:29;-2.40;99.90
30648;DHT22;17683;53.360;9.736;2023-03-01T04:42:54;-2.40;99.90
30648;DHT22;17683;53.360;9.736;2023-03-01T04:45:20;-2.40;99.90
30648;DHT22;17683;53.360;9.736;2023-03-01T04:47:46;-2.30;99.90
30648;DHT22;17683;53.360;9.736;2023-03-01T04:50:15;-2.40;99.90
30648;DHT22;17683;53.360;9.736;2023-03-01T04:52:41;-2.30;99.90
30648;DHT22;17683;53.360;9.736;2023-03-01T04:55:07;-2.30;99.90
30648;DHT22;17683;53.360;9.736;2023-03-01T04:57:33;-2.30;99.90
30648;DHT22;17683;53.360;9.736;2023-03-01T04:59:59;-2.30;99.90
30648;DHT22;17683;53.360;9.736;2023-03-01T05:02:25;-2.20;99.90
30648;DHT22;17683;53.360;9.736;2023-03-01T05:04:51;-2.20;99.90
30648;DHT22;17683;53.360;9.736;2023-03-01T05:07:17;-2.10;99.90
30648;DHT22;17683;53.360;9.736;2023-03-01T05:09:48;-2.10;99.90
30648;DHT22;17683;53.360;9.736;2023-03-01T05:12:14;-2.00;99.90
30648;DHT22;17683;53.360;9.736;2023-03-01T05:14:41;-2.00;99.90
30648;DHT22;17683;53.360;9.736;2023-03-01T05:17:07;-2.00;99.90
30648;DHT22;17683;53.360;9.736;2023-03-01T05:19:33;-2.00;99.90
30648;DHT22;17683;53.360;9.736;2023-03-01T05:21:59;-1.90;99.90
30648;DHT22;17683;53.360;9.736;2023-03-01T05:24:31;-1.90;99.90
30648;DHT22;17683;53.360;9.736;2023-03-01T05:26:57;-1.90;99.90
30648;DHT22;17683;53.360;9.736;2023-03-01T05:29:24;-1.80;99.90
30648;DHT22;17683;53.360;9.736;2023-03-01T05:31:55;-1.80;99.90
30648;DHT22;17683;53.360;9.736;2023-03-01T05:34:38;-1.70;99.90
30648;DHT22;17683;53.360;9.736;2023-03-01T05:37:04;-1.70;99.90
30648;DHT22;17683;53.360;9.736;2023-03-01T05:39:30;-1.60;99.90
30648;DHT22;17683;53.360;9.736;2023-03-01T05:41:58;-1.60;99.90
30648;DHT22;17683;53.360;9.736;2023-03-01T05:44:25;-1.60;99.90
30648;DHT22;17683;53.360;9.736;2023-03-01T05:46:51;-1.60;99.90
30648;DHT22;17683;53.360;9.736;2023-03-01T05:49:17;-1.50;99.90
30648;DHT22;17683;53.360;9.736;2023-03-01T05:51:47;-1.50;99.90
30648;DHT22;17683;53.360;9.736;2023-03-01T05:54:13;-1.40;99.90
30648;DHT22;17683;53.360;9.736;2023-03-01T05:56:39;-1.30;99.90
30648;DHT22;17683;53.360;9.736;2023-03-01T05:59:05;-1.30;99.90
30648;DHT22;17683;53.360;9.736;2023-03-01T06:01:35;-1.30;99.90
30648;DHT22;17683;53.360;9.736;2023-03-01T06:04:04;-1.30;99.90
30648;DHT22;17683;53.360;9.736;2023-03-01T06:06:33;-1.20;99.90
30648;DHT22;17683;53.360;9.736;2023-03-01T06:08:59;-1.20;99.90
30648;DHT22;17683;53.360;9.736;2023-03-01T06:11:25;-1.20;99.90
30648;DHT22;17683;53.360;9.736;2023-03-01T06:13:50;-1.20;99.90
30648;DHT22;17683;53.360;9.736;2023-03-01T06:16:16;-1.20;99.90
30648;DHT22;17683;53.360;9.736;2023-03-01T06:18:42;-1.10;99.90
30648;DHT22;17683;53.360;9.736;2023-03-01T06:21:08;-1.10;99.90
30648;DHT22;17683;53.360;9.736;2023-03-01T06:23:34;-1.10;99.90
30648;DHT22;17683;53.360;9.736;2023-03-01T06:26:00;-1.00;99.90
30648;DHT22;17683;53.360;9.736;2023-03-01T06:28:26;-1.00;99.90
30648;DHT22;17683;53.360;9.736;2023-03-01T06:30:52;-1.00;99.90
30648;DHT22;17683;53.360;9.736;2023-03-01T06:33:19;-0.90;99.90
30648;DHT22;17683;53.360;9.736;2023-03-01T06:35:50;-0.90;99.90
30648;DHT22;17683;53.360;9.736;2023-03-01T06:38:16;-0.90;99.90
30648;DHT22;17683;53.360;9.736;2023-03-01T06:40:44;-0.90;99.90
30648;DHT22;17683;53.360;9.736;2023-03-01T06:43:11;-0.90;99.90
30648;DHT22;17683;53.360;9.736;2023-03-01T06:45:37;-0.80;99.90
30648;DHT22;17683;53.360;9.736;2023-03-01T06:48:04;-0.70;99.90
30648;DHT22;17683;53.360;9.736;2023-03-01T06:50:30;-0.80;99.90
30648;DHT22;17683;53.360;9.736;2023-03-01T06:52:56;-0.70;99.90
30648;DHT22;17683;53.360;9.736;2023-03-01T06:55:22;-0.70;99.90
30648;DHT22;17683;53.360;9.736;2023-03-01T06:57:48;-0.70;99.90
30648;DHT22;17683;53.360;9.736;2023-03-01T07:00:14;-0.60;99.90
30648;DHT22;17683;53.360;9.736;2023-03-01T07:02:41;-0.60;99.90
30648;DHT22;17683;53.360;9.736;2023-03-01T07:05:07;-0.50;99.90
30648;DHT22;17683;53.360;9.736;2023-03-01T07:07:32;-0.50;99.90
30648;DHT22;17683;53.360;9.736;2023-03-01T07:09:58;-0.50;99.90
30648;DHT22;17683;53.360;9.736;2023-03-01T07:12:24;-0.50;99.90
30648;DHT22;17683;53.360;9.736;2023-03-01T07:14:49;-0.40;99.90
30648;DHT22;17683;53.360;9.736;2023-03-01T07:17:15;-0.40;99.90
30648;DHT22;17683;53.360;9.736;2023-03-01T07:19:41;-0.30;99.90
30648;DHT22;17683;53.360;9.736;2023-03-01T07:22:07;-0.30;99.90
30648;DHT22;17683;53.360;9.736;2023-03-01T07:24:35;-0.30;99.90
30648;DHT22;17683;53.360;9.736;2023-03-01T07:27:01;-0.30;99.90
30648;DHT22;17683;53.360;9.736;2023-03-01T07:29:26;-0.30;99.90
30648;DHT22;17683;53.360;9.736;2023-03-01T07:31:54;-0.20;99.90
30648;DHT22;17683;53.360;9.736;2023-03-01T07:34:19;-0.20;99.90
30648;DHT22;17683;53.360;9.736;2023-03-01T07:36:45;-0.20;99.90
30648;DHT22;17683;53.360;9.736;2023-03-01T07:39:11;-0.20;99.90
30648;DHT22;17683;53.360;9.736;2023-03-01T07:41:37;-0.20;99.90
30648;DHT22;17683;53.360;9.736;2023-03-01T07:44:03;-0.10;99.90
30648;DHT22;17683;53.360;9.736;2023-03-01T07:46:29;-0.10;99.90
30648;DHT22;17683;53.360;9.736;2023-03-01T07:48:55;-0.10;99.90
30648;DHT22;17683;53.360;9.736;2023-03-01T07:51:21;0.00;99.90
30648;DHT22;17683;53.360;9.736;2023-03-01T07:53:47;0.00;99.90
30648;DHT22;17683;53.360;9.736;2023-03-01T07:56:15;0.10;99.90
30648;DHT22;17683;53.360;9.736;2023-03-01T07:58:43;0.10;99.90
30648;DHT22;17683;53.360;9.736;2023-03-01T08:01:12;0.20;99.90
30648;DHT22;17683;53.360;9.736;2023-03-01T08:03:38;0.20;99.90
30648;DHT22;17683;53.360;9.736;2023-03-01T08:06:06;0.30;99.90
30648;DHT22;17683;53.360;9.736;2023-03-01T08:08:33;0.30;99.90
30648;DHT22;17683;53.360;9.736;2023-03-01T08:11:00;0.30;99.90
30648;DHT22;17683;53.360;9.736;2023-03-01T08:13:26;0.40;99.90
30648;DHT22;17683;53.360;9.736;2023-03-01T08:15:53;0.40;99.90
30648;DHT22;17683;53.360;9.736;2023-03-01T08:18:20;0.50;99.90
30648;DHT22;17683;53.360;9.736;2023-03-01T08:20:46;0.50;99.90
30648;DHT22;17683;53.360;9.736;2023-03-01T08:23:11;0.60;99.90
30648;DHT22;17683;53.360;9.736;2023-03-01T08:25:38;0.60;99.90
30648;DHT22;17683;53.360;9.736;2023-03-01T08:28:04;0.70;99.90
30648;DHT22;17683;53.360;9.736;2023-03-01T08:30:30;0.70;99.90
30648;DHT22;17683;53.360;9.736;2023-03-01T08:32:56;0.80;99.90
30648;DHT22;17683;53.360;9.736;2023-03-01T08:35:22;0.90;99.90
30648;DHT22;17683;53.360;9.736;2023-03-01T08:37:48;0.90;99.90
30648;DHT22;17683;53.360;9.736;2023-03-01T08:40:14;1.00;99.90
30648;DHT22;17683;53.360;9.736;2023-03-01T08:42:43;1.10;99.90
30648;DHT22;17683;53.360;9.736;2023-03-01T08:45:10;1.20;99.90
30648;DHT22;17683;53.360;9.736;2023-03-01T08:47:36;1.30;99.90
30648;DHT22;17683;53.360;9.736;2023-03-01T08:50:02;1.30;99.90
30648;DHT22;17683;53.360;9.736;2023-03-01T08:52:28;1.40;99.90
30648;DHT22;17683;53.360;9.736;2023-03-01T08:54:56;1.50;99.90
30648;DHT22;17683;53.360;9.736;2023-03-01T08:57:22;1.60;99.90
30648;DHT22;17683;53.360;9.736;2023-03-01T08:59:47;1.70;99.90
30648;DHT22;17683;53.360;9.736;2023-03-01T09:02:16;1.80;99.90
30648;DHT22;17683;53.360;9.736;2023-03-01T09:04:43;1.80;99.90
30648;DHT22;17683;53.360;9.736;2023-03-01T09:07:10;1.90;99.90
30648;DHT22;17683;53.360;9.736;2023-03-01T09:09:36;1.90;99.90
30648;DHT22;17683;53.360;9.736;2023-03-01T09:12:03;1.90;99.90
30648;DHT22;17683;53.360;9.736;2023-03-01T09:14:28;2.00;99.90
30648;DHT22;17683;53.360;9.736;2023-03-01T09:16:54;2.00;99.90
30648;DHT22;17683;53.360;9.736;2023-03-01T09:19:20;2.10;99.90
30648;DHT22;17683;53.360;9.736;2023-03-01T09:21:46;2.20;99.90
30648;DHT22;17683;53.360;9.736;2023-03-01T09:24:20;2.30;99.90
30648;DHT22;17683;53.360;9.736;2023-03-01T09:26:46;2.40;99.90
30648;DHT22;17683;53.360;9.736;2023-03-01T09:29:12;2.50;99.90
30648;DHT22;17683;53.360;9.736;2023-03-01T09:31:39;2.50;99.90
30648;DHT22;17683;53.360;9.736;2023-03-01T09:34:06;2.60;99.90
30648;DHT22;17683;53.360;9.736;2023-03-01T09:36:31;2.70;99.90
30648;DHT22;17683;53.360;9.736;2023-03-01T09:38:58;2.80;99.90
30648;DHT22;17683;53.360;9.736;2023-03-01T09:46:40;3.10;99.90
30648;DHT22;17683;53.360;9.736;2023-03-01T09:49:22;3.20;99.90
30648;DHT22;17683;53.360;9.736;2023-03-01T09:52:09;3.30;99.90
30648;DHT22;17683;53.360;9.736;2023-03-01T09:54:39;3.40;99.90
30648;DHT22;17683;53.360;9.736;2023-03-01T10:05:10;3.60;99.90
30648;DHT22;17683;53.360;9.736;2023-03-01T10:10:32;3.70;99.90
30648;DHT22;17683;53.360;9.736;2023-03-01T10:13:02;3.80;99.90
30648;DHT22;17683;53.360;9.736;2023-03-01T10:15:44;3.90;99.90
30648;DHT22;17683;53.360;9.736;2023-03-01T10:18:20;4.00;99.90
30648;DHT22;17683;53.360;9.736;2023-03-01T10:21:14;4.10;99.90
30648;DHT22;17683;53.360;9.736;2023-03-01T10:23:42;4.10;99.90
30648;DHT22;17683;53.360;9.736;2023-03-01T10:31:22;4.50;99.90
30648;DHT22;17683;53.360;9.736;2023-03-01T10:33:48;4.60;99.90
30648;DHT22;17683;53.360;9.736;2023-03-01T10:36:18;4.80;99.90
30648;DHT22;17683;53.360;9.736;2023-03-01T10:38:54;4.90;99.90
30648;DHT22;17683;53.360;9.736;2023-03-01T10:41:22;5.00;99.90
30648;DHT22;17683;53.360;9.736;2023-03-01T10:43:49;5.10;99.90
30648;DHT22;17683;53.360;9.736;2023-03-01T10:46:31;5.20;99.90
30648;DHT22;17683;53.360;9.736;2023-03-01T10:51:38;5.40;99.90
30648;DHT22;17683;53.360;9.736;2023-03-01T10:54:14;5.50;99.90
30648;DHT22;17683;53.360;9.736;2023-03-01T10:56:51;5.60;99.90
30648;DHT22;17683;53.360;9.736;2023-03-01T11:02:16;5.90;99.90
30648;DHT22;17683;53.360;9.736;2023-03-01T11:07:23;6.00;99.90
30648;DHT22;17683;53.360;9.736;2023-03-01T11:09:49;6.10;99.90
30648;DHT22;17683;53.360;9.736;2023-03-01T11:12:16;6.20;99.90
30648;DHT22;17683;53.360;9.736;2023-03-01T11:14:53;6.30;99.90
30648;DHT22;17683;53.360;9.736;2023-03-01T11:17:28;6.30;99.90
30648;DHT22;17683;53.360;9.736;2023-03-01T11:23:05;6.50;99.90
30648;DHT22;17683;53.360;9.736;2023-03-01T11:25:34;6.60;99.90
30648;DHT22;17683;53.360;9.736;2023-03-01T11:28:04;6.70;99.90
30648;DHT22;17683;53.360;9.736;2023-03-01T11:30:51;6.90;99.90
30648;DHT22;17683;53.360;9.736;2023-03-01T11:33:53;7.00;99.90
30648;DHT22;17683;53.360;9.736;2023-03-01T11:36:35;7.10;99.90
30648;DHT22;17683;53.360;9.736;2023-03-01T11:42:13;7.00;99.90
30648;DHT22;17683;53.360;9.736;2023-03-01T11:44:41;7.00;99.90
30648;DHT22;17683;53.360;9.736;2023-03-01T11:52:53;6.80;99.90
30648;DHT22;17683;53.360;9.736;2023-03-01T12:04:02;6.80;99.90
30648;DHT22;17683;53.360;9.736;2023-03-01T12:06:37;7.00;99.90
30648;DHT22;17683;53.360;9.736;2023-03-01T12:14:42;7.20;99.90
30648;DHT22;17683;53.360;9.736;2023-03-01T12:20:10;7.00;99.90
30648;DHT22;17683;53.360;9.736;2023-03-01T12:25:58;6.90;99.90
30648;DHT22;17683;53.360;9.736;2023-03-01T12:28:38;6.90;99.90
30648;DHT22;17683;53.360;9.736;2023-03-01T12:39:07;7.00;99.90
30648;DHT22;17683;53.360;9.736;2023-03-01T12:50:25;7.30;99.90
30648;DHT22;17683;53.360;9.736;2023-03-01T12:52:56;7.30;99.90
30648;DHT22;17683;53.360;9.736;2023-03-01T12:55:32;7.30;99.90
30648;DHT22;17683;53.360;9.736;2023-03-01T13:00:45;7.40;99.90
30648;DHT22;17683;53.360;9.736;2023-03-01T13:03:24;7.50;99.90
30648;DHT22;17683;53.360;9.736;2023-03-01T13:11:28;7.50;99.90
30648;DHT22;17683;53.360;9.736;2023-03-01T13:16:45;7.50;99.90
30648;DHT22;17683;53.360;9.736;2023-03-01T13:19:23;7.50;99.90
30648;DHT22;17683;53.360;9.736;2023-03-01T13:21:52;7.50;99.90
30648;DHT22;17683;53.360;9.736;2023-03-01T13:24:35;7.50;99.90
30648;DHT22;17683;53.360;9.736;2023-03-01T13:29:50;7.40;99.90
30648;DHT22;17683;53.360;9.736;2023-03-01T13:34:59;7.40;99.90
30648;DHT22;17683;53.360;9.736;2023-03-01T13:37:34;7.40;99.90
30648;DHT22;17683;53.360;9.736;2023-03-01T13:42:54;7.30;99.90
30648;DHT22;17683;53.360;9.736;2023-03-01T13:48:03;7.30;99.90
30648;DHT22;17683;53.360;9.736;2023-03-01T13:50:38;7.30;99.90
30648;DHT22;17683;53.360;9.736;2023-03-01T13:53:14;7.30;99.90
30648;DHT22;17683;53.360;9.736;2023-03-01T13:55:43;7.30;99.90
30648;DHT22;17683;53.360;9.736;2023-03-01T13:58:27;7.30;99.90
30648;DHT22;17683;53.360;9.736;2023-03-01T14:01:18;7.20;99.90
30648;DHT22;17683;53.360;9.736;2023-03-01T14:03:45;7.20;99.90
30648;DHT22;17683;53.360;9.736;2023-03-01T14:06:17;7.20;99.90
30648;DHT22;17683;53.360;9.736;2023-03-01T14:08:47;7.20;99.90
30648;DHT22;17683;53.360;9.736;2023-03-01T14:14:29;7.20;99.90
30648;DHT22;17683;53.360;9.736;2023-03-01T14:17:08;7.20;99.90
30648;DHT22;17683;53.360;9.736;2023-03-01T14:19:37;7.10;99.90
30648;DHT22;17683;53.360;9.736;2023-03-01T14:24:43;7.20;99.90
30648;DHT22;17683;53.360;9.736;2023-03-01T14:27:11;7.20;99.90
30648;DHT22;17683;53.360;9.736;2023-03-01T14:29:39;7.20;99.90
30648;DHT22;17683;53.360;9.736;2023-03-01T14:32:18;7.10;99.90
30648;DHT22;17683;53.360;9.736;2023-03-01T14:34:46;7.20;99.90
30648;DHT22;17683;53.360;9.736;2023-03-01T14:37:34;7.10;99.90
30648;DHT22;17683;53.360;9.736;2023-03-01T14:40:01;7.10;99.90
30648;DHT22;17683;53.360;9.736;2023-03-01T14:42:45;7.10;99.90
30648;DHT22;17683;53.360;9.736;2023-03-01T14:45:12;7.10;99.90
30648;DHT22;17683;53.360;9.736;2023-03-01T14:47:39;7.00;99.90
30648;DHT22;17683;53.360;9.736;2023-03-01T14:52:40;7.00;99.90
30648;DHT22;17683;53.360;9.736;2023-03-01T14:55:20;6.90;99.90
30648;DHT22;17683;53.360;9.736;2023-03-01T14:57:50;6.90;99.90
30648;DHT22;17683;53.360;9.736;2023-03-01T15:00:20;6.90;99.90
30648;DHT22;17683;53.360;9.736;2023-03-01T15:02:48;6.80;99.90
30648;DHT22;17683;53.360;9.736;2023-03-01T15:05:15;6.80;99.90
30648;DHT22;17683;53.360;9.736;2023-03-01T15:07:44;6.80;99.90
30648;DHT22;17683;53.360;9.736;2023-03-01T15:10:31;6.80;99.90
30648;DHT22;17683;53.360;9.736;2023-03-01T15:13:21;6.80;99.90
30648;DHT22;17683;53.360;9.736;2023-03-01T15:15:48;6.80;99.90
30648;DHT22;17683;53.360;9.736;2023-03-01T15:18:28;6.70;99.90
30648;DHT22;17683;53.360;9.736;2023-03-01T15:20:55;6.70;99.90
30648;DHT22;17683;53.360;9.736;2023-03-01T15:23:30;6.60;99.90
30648;DHT22;17683;53.360;9.736;2023-03-01T15:25:56;6.60;99.90
30648;DHT22;17683;53.360;9.736;2023-03-01T15:28:37;6.60;99.90
30648;DHT22;17683;53.360;9.736;2023-03-01T15:31:28;6.60;99.90
30648;DHT22;17683;53.360;9.736;2023-03-01T15:34:28;6.60;99.90
30648;DHT22;17683;53.360;9.736;2023-03-01T15:36:57;6.50;99.90
30648;DHT22;17683;53.360;9.736;2023-03-01T15:39:31;6.50;99.90
30648;DHT22;17683;53.360;9.736;2023-03-01T15:42:45;6.40;99.90
30648;DHT22;17683;53.360;9.736;2023-03-01T15:45:08;6.30;99.90
30648;DHT22;17683;53.360;9.736;2023-03-01T15:47:35;6.30;99.90
30648;DHT22;17683;53.360;9.736;2023-03-01T15:50:01;6.30;99.90
30648;DHT22;17683;53.360;9.736;2023-03-01T15:52:40;6.30;99.90
30648;DHT22;17683;53.360;9.736;2023-03-01T15:57:40;6.20;99.90
30648;DHT22;17683;53.360;9.736;2023-03-01T16:00:12;6.10;99.90
30648;DHT22;17683;53.360;9.736;2023-03-01T16:02:42;6.10;99.90
30648;DHT22;17683;53.360;9.736;2023-03-01T16:05:21;6.10;99.90
30648;DHT22;17683;53.360;9.736;2023-03-01T16:07:48;6.00;99.90
30648;DHT22;17683;53.360;9.736;2023-03-01T16:10:14;6.00;99.90
30648;DHT22;17683;53.360;9.736;2023-03-01T16:12:40;5.90;99.90
30648;DHT22;17683;53.360;9.736;2023-03-01T16:15:16;5.80;99.90
30648;DHT22;17683;53.360;9.736;2023-03-01T16:17:42;5.70;99.90
30648;DHT22;17683;53.360;9.736;2023-03-01T16:20:08;5.70;99.90
30648;DHT22;17683;53.360;9.736;2023-03-01T16:22:34;5.60;99.90
30648;DHT22;17683;53.360;9.736;2023-03-01T16:25:00;5.60;99.90
30648;DHT22;17683;53.360;9.736;2023-03-01T16:27:25;5.50;99.90
30648;DHT22;17683;53.360;9.736;2023-03-01T16:29:51;5.50;99.90
30648;DHT22;17683;53.360;9.736;2023-03-01T16:32:17;5.40;99.90
30648;DHT22;17683;53.360;9.736;2023-03-01T16:34:43;5.40;99.90
30648;DHT22;17683;53.360;9.736;2023-03-01T16:37:08;5.40;99.90
30648;DHT22;17683;53.360;9.736;2023-03-01T16:39:34;5.30;99.90
30648;DHT22;17683;53.360;9.736;2023-03-01T16:42:03;5.30;99.90
30648;DHT22;17683;53.360;9.736;2023-03-01T16:44:29;5.20;99.90
30648;DHT22;17683;53.360;9.736;2023-03-01T16:46:54;5.20;99.90
30648;DHT22;17683;53.360;9.736;2023-03-01T16:49:20;5.10;99.90
30648;DHT22;17683;53.360;9.736;2023-03-01T16:51:46;5.00;99.90
30648;DHT22;17683;53.360;9.736;2023-03-01T16:54:11;5.00;99.90
30648;DHT22;17683;53.360;9.736;2023-03-01T16:56:37;4.90;99.90
30648;DHT22;17683;53.360;9.736;2023-03-01T16:59:05;4.90;99.90
30648;DHT22;17683;53.360;9.736;2023-03-01T17:01:31;4.80;99.90
30648;DHT22;17683;53.360;9.736;2023-03-01T17:04:03;4.70;99.90
30648;DHT22;17683;53.360;9.736;2023-03-01T17:06:28;4.70;99.90
30648;DHT22;17683;53.360;9.736;2023-03-01T17:08:54;4.60;99.90
30648;DHT22;17683;53.360;9.736;2023-03-01T17:11:20;4.50;99.90
30648;DHT22;17683;53.360;9.736;2023-03-01T17:13:46;4.40;99.90
30648;DHT22;17683;53.360;9.736;2023-03-01T17:16:15;4.40;99.90
30648;DHT22;17683;53.360;9.736;2023-03-01T17:18:42;4.30;99.90
30648;DHT22;17683;53.360;9.736;2023-03-01T17:21:08;4.30;99.90
30648;DHT22;17683;53.360;9.736;2023-03-01T17:23:37;4.20;99.90
30648;DHT22;17683;53.360;9.736;2023-03-01T17:26:04;4.10;99.90
30648;DHT22;17683;53.360;9.736;2023-03-01T17:28:32;4.10;99.90
30648;DHT22;17683;53.360;9.736;2023-03-01T17:31:03;4.10;99.90
30648;DHT22;17683;53.360;9.736;2023-03-01T17:33:29;4.00;99.90
30648;DHT22;17683;53.360;9.736;2023-03-01T17:35:59;3.90;99.90
30648;DHT22;17683;53.360;9.736;2023-03-01T17:38:25;3.80;99.90
30648;DHT22;17683;53.360;9.736;2023-03-01T17:40:51;3.80;99.90
30648;DHT22;17683;53.360;9.736;2023-03-01T17:43:17;3.70;99.90
30648;DHT22;17683;53.360;9.736;2023-03-01T17:45:44;3.70;99.90
30648;DHT22;17683;53.360;9.736;2023-03-01T17:48:14;3.70;99.90
30648;DHT22;17683;53.360;9.736;2023-03-01T17:50:40;3.60;99.90
30648;DHT22;17683;53.360;9.736;2023-03-01T17:53:08;3.50;99.90
30648;DHT22;17683;53.360;9.736;2023-03-01T17:55:37;3.50;99.90
30648;DHT22;17683;53.360;9.736;2023-03-01T17:58:04;3.40;99.90
30648;DHT22;17683;53.360;9.736;2023-03-01T18:00:30;3.40;99.90